Time;durP1;ratioP1;P1;durP2;ratioP2;P2;SDS_P1;SDS_P2;PMS_P1;PMS_P2;Temp;Humidity;BMP_temperature;BMP_pressure;BME280_temperature;BME280_humidity;BME280_pressure;Samples;Min_cycle;Max_cycle;Signal;HPM_P1;HPM_P2
2021/08/17 00:01:56;;;;;;;;;;;;;;;;;;10255648;28;19922;-66
2021/08/17 00:06:53;;;;;;;;;;;;;;;;;;10258534;28;20004;-67
2021/08/17 00:11:50;;;;;;;;;;;;;;;;;;10240328;28;20008;-67
2021/08/17 00:16:48;;;;;;;;;;;;;;;;;;10219786;28;19918;-66
2021/08/17 00:21:45;;;;;;;;;;;;;;;;;;10260598;28;19922;-66
2021/08/17 00:26:42;;;;;;;;;;;;;;;;;;10260184;28;19964;-66
2021/08/17 00:31:39;;;;;;;;;;;;;;;;;;10229641;28;19926;-66
2021/08/17 00:36:37;;;;;;;;;;;;;;;;;;10261800;28;19924;-66
2021/08/17 00:41:34;;;;;;;;;;;;;;;;;;10240765;28;20530;-67
2021/08/17 00:46:31;;;;;;;;;;;;;;;;;;10217181;28;19917;-66
2021/08/17 00:51:29;;;;;;;;;;;;;;;;;;10244186;28;19922;-65
2021/08/17 00:56:26;;;;;;;;;;;;;;;;;;10259232;28;20069;-66
2021/08/17 01:01:23;;;;;;;;;;;;;;;;;;10229179;28;19925;-65
2021/08/17 01:06:21;;;;;;;;;;;;;;;;;;10233572;28;20394;-66
2021/08/17 01:11:18;;;;;;;;;;;;;;;;;;10251968;28;19925;-66
2021/08/17 01:16:15;;;;;;;;;;;;;;;;;;10236537;28;20335;-66
2021/08/17 01:21:12;;;;;;;;;;;;;;;;;;10233912;28;19914;-66
2021/08/17 01:26:10;;;;;;;;;;;;;;;;;;10217418;28;19929;-66
2021/08/17 01:31:07;;;;;;;;;;;;;;;;;;10246872;28;20004;-65
2021/08/17 01:36:04;;;;;;;;;;;;;;;;;;10259613;28;20016;-66
2021/08/17 01:41:02;;;;;;;;;;;;;;;;;;10253835;28;20005;-65
2021/08/17 01:45:59;;;;;;;;;;;;;;;;;;10248857;28;19975;-66
2021/08/17 01:50:56;;;;;;;;;;;;;;;;;;10256914;28;20351;-65
2021/08/17 01:55:54;;;;;;;;;;;;;;;;;;10263603;28;20004;-66
2021/08/17 02:00:51;;;;;;;;;;;;;;;;;;10279488;28;19914;-64
2021/08/17 02:05:48;;;;;;;;;;;;;;;;;;10255368;28;19999;-66
2021/08/17 02:10:45;;;;;;;;;;;;;;;;;;10272172;28;19921;-66
2021/08/17 02:15:43;;;;;;;;;;;;;;;;;;10268079;28;19921;-67
2021/08/17 02:20:40;;;;;;;;;;;;;;;;;;10283426;28;19913;-66
2021/08/17 02:25:37;;;;;;;;;;;;;;;;;;10250720;28;20367;-66
2021/08/17 02:30:35;;;;;;;;;;;;;;;;;;10252233;28;19967;-66
2021/08/17 02:35:32;;;;;;;;;;;;;;;;;;10251395;28;19928;-66
2021/08/17 02:40:29;;;;;;;;;;;;;;;;;;10253890;28;19932;-66
2021/08/17 02:45:26;;;;;;;;;;;;;;;;;;10270719;28;19976;-66
2021/08/17 02:50:24;;;;;;;;;;;;;;;;;;10257936;28;19979;-66
2021/08/17 02:55:21;;;;;;;;;;;;;;;;;;10258425;28;19955;-66
2021/08/17 03:00:18;;;;;;;;;;;;;;;;;;10253443;28;20112;-65
2021/08/17 03:05:16;;;;;;;;;;;;;;;;;;10257094;28;19926;-67
2021/08/17 03:10:13;;;;;;;;;;;;;;;;;;10251994;28;19963;-66
2021/08/17 03:15:10;;;;;;;;;;;;;;;;;;10250627;28;19929;-67
2021/08/17 03:20:07;;;;;;;;;;;;;;;;;;10209117;28;19971;-67
2021/08/17 03:25:05;;;;;;;;;;;;;;;;;;10216609;28;19922;-66
2021/08/17 03:30:02;;;;;;;;;;;;;;;;;;10251988;28;20302;-66
2021/08/17 03:34:59;;;;;;;;;;;;;;;;;;10281361;28;20489;-66
2021/08/17 03:39:57;;;;;;;;;;;;;;;;;;10269288;28;19917;-66
2021/08/17 03:44:54;;;;;;;;;;;;;;;;;;10236485;28;20440;-67
2021/08/17 03:49:51;;;;;;;;;;;;;;;;;;10260468;28;19922;-66
2021/08/17 03:54:48;;;;;;;;;;;;;;;;;;10231302;28;19922;-67
2021/08/17 03:59:46;;;;;;;;;;;;;;;;;;10210510;28;19922;-66
2021/08/17 04:04:43;;;;;;;;;;;;;;;;;;10254585;28;19968;-66
2021/08/17 04:09:40;;;;;;;;;;;;;;;;;;10222134;28;20325;-67
2021/08/17 04:14:38;;;;;;;;;;;;;;;;;;10246655;28;19918;-67
2021/08/17 04:19:38;;;;;;;;;;;;;;;;;;10261913;28;19993;-66
2021/08/17 04:24:36;;;;;;;;;;;;;;;;;;10230064;28;19921;-66
2021/08/17 04:29:33;;;;;;;;;;;;;;;;;;10218084;28;20366;-65
2021/08/17 04:34:30;;;;;;;;;;;;;;;;;;10253031;28;19917;-66
2021/08/17 04:39:28;;;;;;;;;;;;;;;;;;10233350;28;19925;-65
2021/08/17 04:44:25;;;;;;;;;;;;;;;;;;10232680;28;20446;-66
2021/08/17 04:49:22;;;;;;;;;;;;;;;;;;10230642;28;19917;-66
2021/08/17 04:54:20;;;;;;;;;;;;;;;;;;10237733;28;19921;-67
2021/08/17 04:59:17;;;;;;;;;;;;;;;;;;10233784;28;19917;-66
2021/08/17 05:04:14;;;;;;;;;;;;;;;;;;10254496;28;20016;-65
2021/08/17 05:09:12;;;;;;;;;;;;;;;;;;10232150;28;19925;-66
2021/08/17 05:14:09;;;;;;;;;;;;;;;;;;10231332;28;19918;-66
2021/08/17 05:19:06;;;;;;;;;;;;;;;;;;10240976;28;20388;-66
2021/08/17 05:24:03;;;;;;;;;;;;;;;;;;10233103;28;20307;-66
2021/08/17 05:29:01;;;;;;;;;;;;;;;;;;10216552;28;19932;-68
2021/08/17 05:33:58;;;;;;;;;;;;;;;;;;10224655;28;20761;-65
2021/08/17 05:38:55;;;;;;;;;;;;;;;;;;10224977;28;19918;-66
2021/08/17 05:43:53;;;;;;;;;;;;;;;;;;10232937;28;20244;-64
2021/08/17 05:48:50;;;;;;;;;;;;;;;;;;10235887;28;19925;-64
2021/08/17 05:53:47;;;;;;;;;;;;;;;;;;10233094;28;20274;-65
2021/08/17 05:58:45;;;;;;;;;;;;;;;;;;10231614;28;19922;-63
2021/08/17 06:03:42;;;;;;;;;;;;;;;;;;10231717;28;19934;-66
2021/08/17 06:08:39;;;;;;;;;;;;;;;;;;10249408;28;19957;-65
2021/08/17 06:13:39;;;;;;;;;;;;;;;;;;10227366;28;19987;-67
2021/08/17 06:18:37;;;;;;;;;;;;;;;;;;10224763;28;19943;-66
2021/08/17 06:23:34;;;;;;;;;;;;;;;;;;10233570;28;19925;-64
2021/08/17 06:28:31;;;;;;;;;;;;;;;;;;10210081;28;20142;-66
2021/08/17 06:33:29;;;;;;;;;;;;;;;;;;10214125;28;20027;-65
2021/08/17 06:38:26;;;;;;;;;;;;;;;;;;10234740;28;19918;-65
2021/08/17 06:43:28;;;;;;;;;;;;;;;;;;10223191;28;19926;-65
2021/08/17 06:48:25;;;;;;;;;;;;;;;;;;10187645;28;19922;-65
2021/08/17 06:53:22;;;;;;;;;;;;;;;;;;10192659;28;20288;-68
2021/08/17 06:58:22;;;;;;;;;;;;;;;;;;10214535;28;21004;-64
2021/08/17 07:03:19;;;;;;;;;;;;;;;;;;10238357;28;19945;-69
2021/08/17 07:08:16;;;;;;;;;;;;;;;;;;10261998;28;19928;-65
2021/08/17 07:13:13;;;;;;;;;;;;;;;;;;10250477;28;20331;-68
2021/08/17 07:18:11;;;;;;;;;;;;;;;;;;10277080;28;19950;-64
2021/08/17 07:23:08;;;;;;;;;;;;;;;;;;10268329;28;19985;-68
2021/08/17 07:28:06;;;;;;;;;;;;;;;;;;10255136;28;19956;-64
2021/08/17 07:33:03;;;;;;;;;;;;;;;;;;10212871;28;20389;-68
2021/08/17 07:38:01;;;;;;;;;;;;;;;;;;10191117;28;19926;-65
2021/08/17 07:42:58;;;;;;;;;;;;;;;;;;10209667;28;19943;-65
2021/08/17 07:47:55;;;;;;;;;;;;;;;;;;10224317;28;19945;-65
2021/08/17 07:52:53;;;;;;;;;;;;;;;;;;10196480;28;19976;-67
2021/08/17 07:57:50;;;;;;;;;;;;;;;;;;10200074;28;19925;-66
2021/08/17 08:02:47;;;;;;;;;;;;;;;;;;10220557;28;20408;-66
2021/08/17 08:07:45;;;;;;;;;;;;;;;;;;10201174;28;20373;-67
2021/08/17 08:12:42;;;;;;;;;;;;;;;;;;10193712;28;20264;-67
2021/08/17 08:17:39;;;;;;;;;;;;;;;;;;10215310;28;19933;-66
2021/08/17 08:22:37;;;;;;;;;;;;;;;;;;10199637;28;19926;-66
2021/08/17 08:27:34;;;;;;;;;;;;;;;;;;10217476;28;19964;-66
2021/08/17 08:32:31;;;;;;;;;;;;;;;;;;10232594;28;20359;-66
2021/08/17 08:37:29;;;;;;;;;;;;;;;;;;10204656;28;20375;-66
2021/08/17 08:42:26;;;;;;;;;;;;;;;;;;10215232;28;20108;-66
2021/08/17 08:47:23;;;;;;;;;;;;;;;;;;10205829;28;19921;-67
2021/08/17 08:52:20;;;;;;;;;;;;;;;;;;10234449;28;19956;-66
2021/08/17 08:57:18;;;;;;;;;;;;;;;;;;10198918;28;19918;-67
2021/08/17 09:02:17;;;;;;;;;;;;;;;;;;10195131;28;19928;-67
2021/08/17 09:07:15;;;;;;;;;;;;;;;;;;10228727;28;19917;-67
2021/08/17 09:12:12;;;;;;;;;;;;;;;;;;10183056;28;19922;-67
2021/08/17 09:17:09;;;;;;;;;;;;;;;;;;10199835;28;19976;-67
2021/08/17 09:22:07;;;;;;;;;;;;;;;;;;10238129;28;19922;-67
2021/08/17 09:27:04;;;;;;;;;;;;;;;;;;10204875;28;20274;-67
2021/08/17 09:32:01;;;;;;;;;;;;;;;;;;10208477;28;19967;-67
2021/08/17 09:37:04;;;;;;;;;;;;;;;;;;10233527;28;20394;-67
2021/08/17 09:42:01;;;;;;;;;;;;;;;;;;10206737;28;19922;-67
2021/08/17 09:46:59;;;;;;;;;;;;;;;;;;10192829;28;19985;-67
2021/08/17 09:51:56;;;;;;;;;;;;;;;;;;10235726;28;19913;-67
2021/08/17 09:56:53;;;;;;;;;;;;;;;;;;10198624;28;20323;-66
2021/08/17 10:01:51;;;;;;;;;;;;;;;;;;10217645;28;19925;-66
2021/08/17 10:06:48;;;;;;;;;;;;;;;;;;10251627;28;20331;-66
2021/08/17 10:11:45;;;;;;;;;;;;;;;;;;10194072;28;19949;-67
2021/08/17 10:16:43;;;;;;;;;;;;;;;;;;10204681;28;20591;-67
2021/08/17 10:21:40;;;;;;;;;;;;;;;;;;10239132;28;20027;-67
2021/08/17 10:26:37;;;;;;;;;;;;;;;;;;10195066;28;19972;-66
2021/08/17 10:31:35;;;;;;;;;;;;;;;;;;10227560;28;19922;-67
2021/08/17 10:36:32;;;;;;;;;;;;;;;;;;10197058;28;19928;-67
2021/08/17 10:41:29;;;;;;;;;;;;;;;;;;10192591;28;20016;-66
2021/08/17 10:46:27;;;;;;;;;;;;;;;;;;10242156;28;19925;-64
2021/08/17 10:51:24;;;;;;;;;;;;;;;;;;10209331;28;19918;-66
2021/08/17 10:56:22;;;;;;;;;;;;;;;;;;10208597;28;20108;-67
2021/08/17 11:01:19;;;;;;;;;;;;;;;;;;10231196;28;19944;-66
2021/08/17 11:06:16;;;;;;;;;;;;;;;;;;10190399;28;19969;-66
2021/08/17 11:11:13;;;;;;;;;;;;;;;;;;10199933;28;20542;-66
2021/08/17 11:16:11;;;;;;;;;;;;;;;;;;10225309;28;20473;-66
2021/08/17 11:21:08;;;;;;;;;;;;;;;;;;10199648;28;20255;-66
2021/08/17 11:26:05;;;;;;;;;;;;;;;;;;10185476;28;19969;-66
2021/08/17 11:31:03;;;;;;;;;;;;;;;;;;10229337;28;19972;-66
2021/08/17 11:36:00;;;;;;;;;;;;;;;;;;10198439;28;19925;-66
2021/08/17 11:40:58;;;;;;;;;;;;;;;;;;10198426;28;20009;-66
2021/08/17 11:45:57;;;;;;;;;;;;;;;;;;10217285;28;20376;-66
2021/08/17 11:50:54;;;;;;;;;;;;;;;;;;10213559;28;19924;-66
2021/08/17 11:55:51;;;;;;;;;;;;;;;;;;10205435;28;19924;-66
2021/08/17 12:00:49;;;;;;;;;;;;;;;;;;10251085;28;19963;-66
2021/08/17 12:05:46;;;;;;;;;;;;;;;;;;10228394;28;20342;-66
2021/08/17 12:10:43;;;;;;;;;;;;;;;;;;10207853;28;19918;-65
2021/08/17 12:15:41;;;;;;;;;;;;;;;;;;10243748;28;20043;-65
2021/08/17 12:20:38;;;;;;;;;;;;;;;;;;10223457;28;20303;-65
2021/08/17 12:25:35;;;;;;;;;;;;;;;;;;10222136;28;19969;-65
2021/08/17 12:30:33;;;;;;;;;;;;;;;;;;10206373;28;19957;-65
2021/08/17 12:35:30;;;;;;;;;;;;;;;;;;10208646;28;20416;-64
2021/08/17 12:40:27;;;;;;;;;;;;;;;;;;10210101;28;20719;-65
2021/08/17 12:45:25;;;;;;;;;;;;;;;;;;10200263;28;19922;-64
2021/08/17 12:50:22;;;;;;;;;;;;;;;;;;10227091;28;19964;-64
2021/08/17 12:55:19;;;;;;;;;;;;;;;;;;10247597;28;21280;-64
2021/08/17 13:00:16;;;;;;;;;;;;;;;;;;10228683;28;19972;-64
2021/08/17 13:05:14;;;;;;;;;;;;;;;;;;10203025;28;20130;-65
2021/08/17 13:10:11;;;;;;;;;;;;;;;;;;10230411;28;19917;-65
2021/08/17 13:15:09;;;;;;;;;;;;;;;;;;10247071;28;19921;-66
2021/08/17 13:20:07;;;;;;;;;;;;;;;;;;10221588;28;20017;-66
2021/08/17 13:25:04;;;;;;;;;;;;;;;;;;10213228;28;19928;-65
2021/08/17 13:30:02;;;;;;;;;;;;;;;;;;10202526;28;20009;-66
2021/08/17 13:34:59;;;;;;;;;;;;;;;;;;10203165;28;19921;-66
2021/08/17 13:39:56;;;;;;;;;;;;;;;;;;10235358;23;19926;-63
2021/08/17 13:44:54;;;;;;;;;;;;;;;;;;10185741;28;19930;-63
2021/08/17 13:49:51;;;;;;;;;;;;;;;;;;10154609;28;20333;-63
2021/08/17 13:54:48;;;;;;;;;;;;;;;;;;10170379;28;19929;-65
2021/08/17 13:59:45;;;;;;;;;;;;;;;;;;10100963;28;20460;-64
2021/08/17 14:04:43;;;;;;;;;;;;;;;;;;10147279;28;19933;-65
2021/08/17 14:09:40;;;;;;;;;;;;;;;;;;10154787;28;20488;-61
2021/08/17 14:14:37;;;;;;;;;;;;;;;;;;10140810;28;20371;-65
2021/08/17 14:19:34;;;;;;;;;;;;;;;;;;10196251;28;19925;-64
2021/08/17 14:24:32;;;;;;;;;;;;;;;;;;10202499;28;20375;-61
2021/08/17 14:29:29;;;;;;;;;;;;;;;;;;10182532;28;20327;-62
2021/08/17 14:34:26;;;;;;;;;;;;;;;;;;10177599;28;20411;-62
2021/08/17 14:39:24;;;;;;;;;;;;;;;;;;10175798;28;19937;-61
2021/08/17 14:44:21;;;;;;;;;;;;;;;;;;10178711;28;19922;-62
2021/08/17 14:49:19;;;;;;;;;;;;;;;;;;10177374;28;20281;-62
2021/08/17 14:54:16;;;;;;;;;;;;;;;;;;10194417;28;19929;-62
2021/08/17 14:59:13;;;;;;;;;;;;;;;;;;10202286;28;20292;-63
2021/08/17 15:04:13;;;;;;;;;;;;;;;;;;10211883;28;20399;-63
2021/08/17 15:09:10;;;;;;;;;;;;;;;;;;10207551;28;19918;-62
2021/08/17 15:14:07;;;;;;;;;;;;;;;;;;10202271;28;20303;-63
2021/08/17 15:19:05;;;;;;;;;;;;;;;;;;10184557;28;19924;-63
2021/08/17 15:24:02;;;;;;;;;;;;;;;;;;10159391;28;19922;-63
2021/08/17 15:28:59;;;;;;;;;;;;;;;;;;10157182;28;19945;-62
2021/08/17 15:33:56;;;;;;;;;;;;;;;;;;10163869;28;20384;-63
2021/08/17 15:38:54;;;;;;;;;;;;;;;;;;10143600;28;19922;-63
2021/08/17 15:43:51;;;;;;;;;;;;;;;;;;10158974;28;19922;-62
2021/08/17 15:48:48;;;;;;;;;;;;;;;;;;10166284;28;20375;-62
2021/08/17 15:53:45;;;;;;;;;;;;;;;;;;10191265;28;20927;-62
2021/08/17 15:58:43;;;;;;;;;;;;;;;;;;10201330;28;19922;-62
2021/08/17 16:03:40;;;;;;;;;;;;;;;;;;10170790;28;19930;-61
2021/08/17 16:08:37;;;;;;;;;;;;;;;;;;10177535;28;20384;-61
2021/08/17 16:13:35;;;;;;;;;;;;;;;;;;10174774;28;19918;-61
2021/08/17 16:18:32;;;;;;;;;;;;;;;;;;10170723;28;20465;-62
2021/08/17 16:23:29;;;;;;;;;;;;;;;;;;10146880;28;19922;-61
2021/08/17 16:28:27;;;;;;;;;;;;;;;;;;10161923;28;19968;-63
2021/08/17 16:33:24;;;;;;;;;;;;;;;;;;10134818;28;20289;-61
2021/08/17 16:38:22;;;;;;;;;;;;;;;;;;10181972;28;19921;-61
2021/08/17 16:43:19;;;;;;;;;;;;;;;;;;10204182;28;19936;-62
2021/08/17 16:48:16;;;;;;;;;;;;;;;;;;10199161;28;19969;-61
2021/08/17 16:53:13;;;;;;;;;;;;;;;;;;10153468;28;19926;-62
2021/08/17 16:58:11;;;;;;;;;;;;;;;;;;10181819;28;19973;-61
2021/08/17 17:03:08;;;;;;;;;;;;;;;;;;10181583;28;19929;-61
2021/08/17 17:08:05;;;;;;;;;;;;;;;;;;10205596;28;20032;-61
2021/08/17 17:13:03;;;;;;;;;;;;;;;;;;10176420;28;20451;-61
2021/08/17 17:18:00;;;;;;;;;;;;;;;;;;10176012;28;19933;-62
2021/08/17 17:22:57;;;;;;;;;;;;;;;;;;10177107;28;19922;-63
2021/08/17 17:27:54;;;;;;;;;;;;;;;;;;10162696;28;20008;-63
2021/08/17 17:32:52;;;;;;;;;;;;;;;;;;10206690;28;20579;-62
2021/08/17 17:37:49;;;;;;;;;;;;;;;;;;10208836;28;19924;-63
2021/08/17 17:42:46;;;;;;;;;;;;;;;;;;10208856;28;19925;-63
2021/08/17 17:47:44;;;;;;;;;;;;;;;;;;10202480;28;19956;-63
2021/08/17 17:52:41;;;;;;;;;;;;;;;;;;10201313;28;19996;-63
2021/08/17 17:57:38;;;;;;;;;;;;;;;;;;10219488;28;19910;-63
2021/08/17 18:02:38;;;;;;;;;;;;;;;;;;10224952;28;19952;-63
2021/08/17 18:07:35;;;;;;;;;;;;;;;;;;10213640;28;20352;-64
2021/08/17 18:12:33;;;;;;;;;;;;;;;;;;10220379;28;19918;-64
2021/08/17 18:17:30;;;;;;;;;;;;;;;;;;10209182;28;20036;-63
2021/08/17 18:22:27;;;;;;;;;;;;;;;;;;10210261;28;19929;-63
2021/08/17 18:27:24;;;;;;;;;;;;;;;;;;10209756;28;19972;-64
2021/08/17 18:32:22;;;;;;;;;;;;;;;;;;10214488;28;19932;-63
2021/08/17 18:37:19;;;;;;;;;;;;;;;;;;10212300;28;19918;-64
2021/08/17 18:42:16;;;;;;;;;;;;;;;;;;10212748;28;19933;-64
2021/08/17 18:47:14;;;;;;;;;;;;;;;;;;10221093;28;19924;-64
2021/08/17 18:52:11;;;;;;;;;;;;;;;;;;10201643;28;20016;-64
2021/08/17 18:57:08;;;;;;;;;;;;;;;;;;10213229;28;20500;-63
2021/08/17 19:02:06;;;;;;;;;;;;;;;;;;10208664;28;20277;-64
2021/08/17 19:07:04;;;;;;;;;;;;;;;;;;10215617;28;19940;-62
2021/08/17 19:12:01;;;;;;;;;;;;;;;;;;10214022;28;19994;-63
2021/08/17 19:16:58;;;;;;;;;;;;;;;;;;10212169;28;20375;-62
2021/08/17 19:21:56;;;;;;;;;;;;;;;;;;10211924;28;20450;-63
2021/08/17 19:26:53;;;;;;;;;;;;;;;;;;10208079;28;19925;-63
2021/08/17 19:31:50;;;;;;;;;;;;;;;;;;10210851;28;19929;-63
2021/08/17 19:36:48;;;;;;;;;;;;;;;;;;10220418;28;20153;-62
2021/08/17 19:41:45;;;;;;;;;;;;;;;;;;10196952;28;19926;-62
2021/08/17 19:46:42;;;;;;;;;;;;;;;;;;10210439;28;19973;-62
2021/08/17 19:51:39;;;;;;;;;;;;;;;;;;10209882;28;19922;-65
2021/08/17 19:56:36;;;;;;;;;;;;;;;;;;10206619;28;20364;-64
2021/08/17 20:01:34;;;;;;;;;;;;;;;;;;10213897;28;19971;-64
2021/08/17 20:06:31;;;;;;;;;;;;;;;;;;10165381;28;19945;-64
2021/08/17 20:11:29;;;;;;;;;;;;;;;;;;10153645;28;19926;-64
2021/08/17 20:16:26;;;;;;;;;;;;;;;;;;10181257;28;20363;-63
2021/08/17 20:21:23;;;;;;;;;;;;;;;;;;10189624;28;19924;-63
2021/08/17 20:26:21;;;;;;;;;;;;;;;;;;10185640;28;20341;-63
2021/08/17 20:31:18;;;;;;;;;;;;;;;;;;10220556;28;19956;-64
2021/08/17 20:36:15;;;;;;;;;;;;;;;;;;10206567;28;19925;-63
2021/08/17 20:41:12;;;;;;;;;;;;;;;;;;10217514;28;19948;-63
2021/08/17 20:46:10;;;;;;;;;;;;;;;;;;10206511;28;20443;-63
2021/08/17 20:51:07;;;;;;;;;;;;;;;;;;10200335;28;20044;-63
2021/08/17 20:56:04;;;;;;;;;;;;;;;;;;10190328;28;19929;-63
2021/08/17 21:01:02;;;;;;;;;;;;;;;;;;10200679;28;19918;-62
2021/08/17 21:06:00;;;;;;;;;;;;;;;;;;10226738;28;19926;-63
2021/08/17 21:10:57;;;;;;;;;;;;;;;;;;10204566;28;19933;-63
2021/08/17 21:15:54;;;;;;;;;;;;;;;;;;10207316;28;20048;-63
2021/08/17 21:20:52;;;;;;;;;;;;;;;;;;10212765;28;20357;-63
2021/08/17 21:25:49;;;;;;;;;;;;;;;;;;10207523;28;19926;-62
2021/08/17 21:30:49;;;;;;;;;;;;;;;;;;10209283;28;19918;-63
2021/08/17 21:35:47;;;;;;;;;;;;;;;;;;10203805;28;19933;-62
2021/08/17 21:40:44;;;;;;;;;;;;;;;;;;10192402;28;20996;-64
2021/08/17 21:45:41;;;;;;;;;;;;;;;;;;10212099;28;19922;-64
2021/08/17 21:50:39;;;;;;;;;;;;;;;;;;10186609;28;19972;-64
2021/08/17 21:55:36;;;;;;;;;;;;;;;;;;10206351;28;19929;-64
2021/08/17 22:00:33;;;;;;;;;;;;;;;;;;10194913;28;20101;-64
2021/08/17 22:05:30;;;;;;;;;;;;;;;;;;10201139;28;19925;-64
2021/08/17 22:10:28;;;;;;;;;;;;;;;;;;10198243;28;20008;-64
2021/08/17 22:15:25;;;;;;;;;;;;;;;;;;10189082;28;19933;-64
2021/08/17 22:20:22;;;;;;;;;;;;;;;;;;10205075;28;19922;-64
2021/08/17 22:25:19;;;;;;;;;;;;;;;;;;10188499;28;19926;-63
2021/08/17 22:30:17;;;;;;;;;;;;;;;;;;10208313;28;19964;-66
2021/08/17 22:35:14;;;;;;;;;;;;;;;;;;10221222;28;20342;-64
2021/08/17 22:40:11;;;;;;;;;;;;;;;;;;10209381;28;19918;-64
2021/08/17 22:45:09;;;;;;;;;;;;;;;;;;10180557;28;19922;-63
2021/08/17 22:50:06;;;;;;;;;;;;;;;;;;10168764;28;19929;-63
2021/08/17 22:55:03;;;;;;;;;;;;;;;;;;10185479;28;19918;-62
2021/08/17 23:00:00;;;;;;;;;;;;;;;;;;10174682;28;20047;-63
2021/08/17 23:04:58;;;;;;;;;;;;;;;;;;10168847;28;19921;-62
2021/08/17 23:09:55;;;;;;;;;;;;;;;;;;10191480;28;20016;-64
2021/08/17 23:14:52;;;;;;;;;;;;;;;;;;10191578;28;19929;-64
2021/08/17 23:19:49;;;;;;;;;;;;;;;;;;10226339;28;19991;-63
2021/08/17 23:24:47;;;;;;;;;;;;;;;;;;10183228;28;20032;-63
2021/08/17 23:29:44;;;;;;;;;;;;;;;;;;10187619;28;19917;-62
2021/08/17 23:34:43;;;;;;;;;;;;;;;;;;10202347;28;19917;-64
2021/08/17 23:39:40;;;;;;;;;;;;;;;;;;10197447;28;19933;-64
2021/08/17 23:44:37;;;;;;;;;;;;;;;;;;10209068;28;19957;-64
2021/08/17 23:49:35;;;;;;;;;;;;;;;;;;10206471;28;19946;-65
2021/08/17 23:54:32;;;;;;;;;;;;;;;;;;10208715;28;19918;-64
2021/08/17 23:59:29;;;;;;;;;;;;;;;;;;10203916;28;19928;-63
